createdAt,value
2024-05-09T00:01:57.464Z,101136.75
2024-05-09T00:06:58.881Z,101139.81
2024-05-09T00:12:00.483Z,101135.56
2024-05-09T00:17:02.098Z,101135.09
2024-05-09T00:22:03.782Z,101146.00
2024-05-09T00:27:05.496Z,101151.25
2024-05-09T00:32:09.143Z,101142.38
2024-05-09T00:37:10.793Z,101135.03
2024-05-09T00:42:14.464Z,101144.19
2024-05-09T00:47:16.233Z,101116.88
2024-05-09T00:52:20.397Z,101135.38
2024-05-09T00:57:22.678Z,101127.84
2024-05-09T01:02:24.350Z,101133.94
2024-05-09T01:07:25.915Z,101135.78
2024-05-09T01:12:27.429Z,101141.50
2024-05-09T01:17:29.427Z,101135.69
2024-05-09T01:22:32.486Z,101124.28
2024-05-09T01:27:34.116Z,101140.81
2024-05-09T01:32:36.145Z,101133.03
2024-05-09T01:37:37.925Z,101128.91
2024-05-09T01:42:39.588Z,101128.72
2024-05-09T01:47:41.577Z,101126.78
2024-05-09T01:52:43.306Z,101106.53
2024-05-09T01:57:46.144Z,101114.88
2024-05-09T02:02:47.963Z,101114.19
2024-05-09T02:07:49.474Z,101117.31
2024-05-09T02:12:50.952Z,101119.41
2024-05-09T02:17:52.585Z,101130.00
2024-05-09T02:22:54.194Z,101135.22
2024-05-09T02:27:56.015Z,101136.59
2024-05-09T02:32:57.499Z,101131.25
2024-05-09T02:37:59.080Z,101135.63
2024-05-09T02:43:01.033Z,101130.53
2024-05-09T02:48:02.923Z,101123.47
2024-05-09T02:53:04.853Z,101130.75
2024-05-09T02:58:10.384Z,101122.75
2024-05-09T03:03:14.256Z,101127.72
2024-05-09T03:08:17.392Z,101123.69
2024-05-09T03:13:19.093Z,101129.03
2024-05-09T03:18:20.555Z,101109.84
2024-05-09T03:23:22.726Z,101126.25
2024-05-09T03:28:24.367Z,101133.81
2024-05-09T03:33:26.308Z,101138.66
2024-05-09T03:38:28.296Z,101139.72
2024-05-09T03:43:29.916Z,101137.06
2024-05-09T03:48:35.121Z,101137.50
2024-05-09T03:53:36.699Z,101106.47
2024-05-09T03:58:38.190Z,101128.25
2024-05-09T04:03:39.740Z,101140.19
2024-05-09T04:08:41.455Z,101142.00
2024-05-09T04:13:43.271Z,101135.69
2024-05-09T04:18:45.615Z,101127.19
2024-05-09T04:23:47.111Z,101151.47
2024-05-09T04:28:48.805Z,101144.66
2024-05-09T04:33:50.933Z,101151.25
2024-05-09T04:38:52.918Z,101150.00
2024-05-09T04:43:54.708Z,101146.72
2024-05-09T04:48:56.193Z,101143.81
2024-05-09T04:53:58.823Z,101161.81
2024-05-09T04:59:00.468Z,101160.53
2024-05-09T05:04:03.243Z,101158.44
2024-05-09T05:09:05.280Z,101159.09
2024-05-09T05:14:06.964Z,101164.44
2024-05-09T05:19:11.456Z,101162.25
2024-05-09T05:24:14.107Z,101157.28
2024-05-09T05:29:16.490Z,101162.72
2024-05-09T05:34:19.409Z,101163.38
2024-05-09T05:39:21.031Z,101170.91
2024-05-09T05:44:23.566Z,101178.44
2024-05-09T05:49:25.400Z,101186.94
2024-05-09T05:54:27.357Z,101185.84
2024-05-09T05:59:29.346Z,101186.78
2024-05-09T06:04:31.032Z,101193.69
2024-05-09T06:09:33.354Z,101176.53
2024-05-09T06:14:35.586Z,101181.38
2024-05-09T06:19:37.155Z,101186.56
2024-05-09T06:24:38.673Z,101183.00
2024-05-09T06:29:40.188Z,101188.72
2024-05-09T06:34:41.663Z,101193.75
2024-05-09T06:39:45.746Z,101176.69
2024-05-09T06:44:47.224Z,101184.41
2024-05-09T06:49:49.122Z,101188.66
2024-05-09T06:54:50.668Z,101186.44
2024-05-09T06:59:52.267Z,101182.94
2024-05-09T07:04:54.246Z,101196.03
2024-05-09T07:09:55.869Z,101200.69
2024-05-09T07:14:57.249Z,101185.06
2024-05-09T07:19:58.845Z,101189.38
2024-05-09T07:25:03.614Z,101193.34
2024-05-09T07:30:09.386Z,101189.66
2024-05-09T07:35:14.623Z,101186.03
2024-05-09T07:40:24.894Z,101180.81
2024-05-09T07:55:46.289Z,101168.13
2024-05-09T08:00:47.915Z,101177.38
2024-05-09T08:05:49.929Z,101178.19
2024-05-09T08:10:51.499Z,101181.16
2024-05-09T08:15:53.118Z,101178.91
2024-05-09T08:20:54.615Z,101180.28
2024-05-09T08:25:56.029Z,101177.38
2024-05-09T08:30:57.626Z,101175.53
2024-05-09T08:35:59.239Z,101155.78
2024-05-09T08:41:03.817Z,101152.50
2024-05-09T08:46:07.629Z,101151.03
2024-05-09T08:51:09.227Z,101146.38
2024-05-09T08:56:12.851Z,101143.94
2024-05-09T09:01:15.674Z,101145.09
2024-05-09T09:06:21.702Z,101151.28
2024-05-09T09:11:23.452Z,101139.50
2024-05-09T09:16:33.021Z,101144.59
2024-05-09T09:21:36.129Z,101138.38
2024-05-09T09:26:37.522Z,101138.56
2024-05-09T09:31:39.236Z,101121.63
2024-05-09T09:36:45.456Z,101124.81
2024-05-09T09:41:48.106Z,101133.09
2024-05-09T09:46:55.189Z,101124.94
2024-05-09T09:51:57.236Z,101123.13
2024-05-09T09:57:00.927Z,101120.41
2024-05-09T10:02:03.238Z,101115.34
2024-05-09T10:07:11.474Z,101101.88
2024-05-09T10:12:15.644Z,101108.81
2024-05-09T10:17:18.208Z,101111.69
2024-05-09T10:22:29.168Z,101112.28
2024-05-09T10:27:32.166Z,101097.53
2024-05-09T10:32:40.125Z,101098.13
2024-05-09T10:37:42.221Z,101100.53
2024-05-09T10:42:44.862Z,101090.06
2024-05-09T10:47:46.513Z,101078.50
2024-05-09T10:52:47.953Z,101074.63
2024-05-09T10:57:49.679Z,101073.97
2024-05-09T11:02:54.129Z,101067.00
2024-05-09T11:07:55.668Z,101063.16
2024-05-09T11:12:57.292Z,101053.78
2024-05-09T11:17:59.000Z,101056.19
2024-05-09T11:23:05.072Z,101061.34
2024-05-09T11:28:07.247Z,101050.53
2024-05-09T11:33:11.749Z,101027.19
2024-05-09T11:38:13.750Z,101012.97
2024-05-09T11:43:15.206Z,101026.38
2024-05-09T11:48:16.996Z,101036.34
2024-05-09T11:53:27.514Z,101019.94
2024-05-09T11:58:34.147Z,101004.94
2024-05-09T12:03:37.691Z,100993.63
2024-05-09T12:08:39.341Z,100996.41
2024-05-09T12:13:40.959Z,100991.81
2024-05-09T12:18:42.500Z,100993.31
2024-05-09T12:23:44.137Z,100990.09
2024-05-09T12:28:45.580Z,100986.75
2024-05-09T12:33:47.325Z,100979.84
2024-05-09T12:38:49.994Z,100981.84
2024-05-09T12:43:51.359Z,100976.03
2024-05-09T12:48:53.389Z,100977.28
2024-05-09T12:53:54.951Z,100969.56
2024-05-09T12:58:57.418Z,100961.59
2024-05-09T13:03:59.047Z,100949.84
2024-05-09T13:09:00.859Z,100939.06
2024-05-09T13:14:02.295Z,100940.16
2024-05-09T13:19:04.157Z,100933.53
2024-05-09T13:24:08.542Z,100931.28
2024-05-09T13:29:10.276Z,100918.63
2024-05-09T13:34:12.019Z,100914.28
2024-05-09T13:39:13.451Z,100913.69
2024-05-09T13:44:15.482Z,100898.94
2024-05-09T13:49:17.654Z,100874.25
2024-05-09T13:54:22.722Z,100905.97
2024-05-09T13:59:24.505Z,100894.44
2024-05-09T14:04:27.869Z,100879.13
2024-05-09T14:09:29.899Z,100887.34
2024-05-09T14:14:31.332Z,100874.88
2024-05-09T14:19:32.776Z,100873.03
2024-05-09T14:24:34.332Z,100866.47
2024-05-09T14:29:37.035Z,100851.69
2024-05-09T14:34:38.907Z,100855.78
2024-05-09T14:39:40.815Z,100833.66
2024-05-09T14:44:42.858Z,100848.06
2024-05-09T14:49:47.500Z,100835.53
2024-05-09T14:54:56.442Z,100834.22
2024-05-09T15:00:05.184Z,100829.31
2024-05-09T15:05:10.839Z,100825.28
2024-05-09T15:10:23.800Z,100817.59
2024-05-09T15:15:33.725Z,100810.50
2024-05-09T15:20:37.010Z,100805.19
2024-05-09T15:25:40.207Z,100806.41
2024-05-09T15:30:45.475Z,100806.88
2024-05-09T15:35:53.566Z,100799.13
2024-05-09T15:40:56.638Z,100788.09
2024-05-09T15:45:58.554Z,100782.97
2024-05-09T15:51:00.246Z,100790.66
2024-05-09T15:56:02.227Z,100789.53
2024-05-09T16:01:08.228Z,100786.81
2024-05-09T16:06:09.972Z,100780.00
2024-05-09T16:11:12.951Z,100777.22
2024-05-09T16:16:15.196Z,100774.94
2024-05-09T16:21:16.659Z,100762.78
2024-05-09T16:26:18.064Z,100766.63
2024-05-09T16:31:19.547Z,100769.06
2024-05-09T16:36:21.282Z,100772.69
2024-05-09T16:41:24.778Z,100769.91
2024-05-09T16:46:28.045Z,100765.88
2024-05-09T16:51:29.460Z,100756.28
2024-05-09T16:56:31.204Z,100762.53
2024-05-09T17:01:32.746Z,100764.56
2024-05-09T17:06:34.635Z,100748.88
2024-05-09T17:11:38.900Z,100765.41
2024-05-09T17:16:40.855Z,100761.38
2024-05-09T17:21:42.417Z,100751.09
2024-05-09T17:26:44.428Z,100756.50
2024-05-09T17:31:47.771Z,100751.06
2024-05-09T17:36:49.216Z,100754.16
2024-05-09T17:41:52.944Z,100746.44
2024-05-09T17:46:55.742Z,100752.75
2024-05-09T17:51:58.910Z,100763.13
2024-05-09T17:57:01.076Z,100752.19
2024-05-09T18:02:02.622Z,100756.09
2024-05-09T18:07:04.833Z,100755.50
2024-05-09T18:12:06.962Z,100756.88
2024-05-09T18:17:11.849Z,100753.97
2024-05-09T18:22:14.499Z,100751.34
2024-05-09T18:27:16.454Z,100758.31
2024-05-09T18:32:18.091Z,100755.00
2024-05-09T18:37:19.813Z,100758.59
2024-05-09T18:42:21.451Z,100767.44
2024-05-09T18:47:23.195Z,100766.63
2024-05-09T18:52:24.820Z,100757.38
2024-05-09T18:57:26.642Z,100765.41
2024-05-09T19:02:30.702Z,100759.16
2024-05-09T19:07:32.203Z,100765.41
2024-05-09T19:12:33.656Z,100772.56
2024-05-09T19:17:35.249Z,100782.50
2024-05-09T19:22:39.796Z,100786.44
2024-05-09T19:27:42.934Z,100783.06
2024-05-09T19:32:44.472Z,100795.91
2024-05-09T19:37:48.740Z,100786.47
2024-05-09T19:42:50.446Z,100791.69
2024-05-09T19:47:52.067Z,100782.09
2024-05-09T19:52:53.827Z,100793.75
2024-05-09T19:57:55.272Z,100801.69
2024-05-09T20:02:57.064Z,100792.56
2024-05-09T20:07:59.554Z,100789.00
2024-05-09T20:13:01.770Z,100788.00
2024-05-09T20:18:05.622Z,100795.13
2024-05-09T20:23:07.590Z,100794.94
2024-05-09T20:28:09.979Z,100793.75
2024-05-09T20:33:13.942Z,100803.38
2024-05-09T20:38:15.595Z,100784.31
2024-05-09T20:43:17.811Z,100797.94
2024-05-09T20:48:20.152Z,100795.59
2024-05-09T20:53:21.634Z,100796.22
2024-05-09T20:58:23.524Z,100799.59
2024-05-09T21:03:25.333Z,100806.69
2024-05-09T21:08:27.158Z,100805.66
2024-05-09T21:13:28.690Z,100796.44
2024-05-09T21:18:32.625Z,100799.84
2024-05-09T21:23:34.121Z,100801.16
2024-05-09T21:28:35.589Z,100802.81
2024-05-09T21:33:37.337Z,100806.88
2024-05-09T21:38:44.925Z,100804.97
2024-05-09T21:43:46.326Z,100798.72
2024-05-09T21:48:48.047Z,100803.41
2024-05-09T21:53:49.569Z,100806.91
2024-05-09T21:58:51.228Z,100809.56
2024-05-09T22:03:52.948Z,100810.06
2024-05-09T22:08:54.581Z,100808.69
2024-05-09T22:13:55.989Z,100815.69
2024-05-09T22:18:58.810Z,100808.41
2024-05-09T22:24:00.475Z,100770.19
2024-05-09T22:29:06.432Z,100809.88
2024-05-09T22:34:08.883Z,100817.56
2024-05-09T22:39:10.401Z,100807.56
2024-05-09T22:44:12.043Z,100809.41
2024-05-09T22:49:14.955Z,100792.84
2024-05-09T22:54:16.409Z,100795.53
2024-05-09T22:59:18.720Z,100765.41
2024-05-09T23:04:20.221Z,100794.91
2024-05-09T23:09:22.685Z,100783.94
2024-05-09T23:14:24.097Z,100786.13
2024-05-09T23:19:28.156Z,100785.34
2024-05-09T23:24:30.553Z,100777.81
2024-05-09T23:29:32.798Z,100784.56
2024-05-09T23:34:35.308Z,100790.25
2024-05-09T23:39:36.824Z,100791.56
2024-05-09T23:44:38.268Z,100787.34
2024-05-09T23:49:39.801Z,100780.44
2024-05-09T23:54:42.512Z,100772.28
2024-05-09T23:59:44.023Z,100774.44
